Time;durP1;ratioP1;P1;durP2;ratioP2;P2;SDS_P1;SDS_P2;PMS_P1;PMS_P2;Temp;Humidity;BMP_temperature;BMP_pressure;BME280_temperature;BME280_humidity;BME280_pressure;Samples;Min_cycle;Max_cycle;Signal;HPM_P1;HPM_P2
2022/06/07 00:02:03;;;;;;;2.30;2.08;;;22.20;87.70;;;;;;5075668;28;20117;-87
2022/06/07 00:04:28;;;;;;;4.60;2.50;;;22.20;87.90;;;;;;5077870;28;20089;-86
2022/06/07 00:06:54;;;;;;;6.63;4.00;;;22.20;87.90;;;;;;5088700;28;20021;-86
2022/06/07 00:09:19;;;;;;;6.75;3.22;;;22.20;88.00;;;;;;5091450;28;20032;-86
2022/06/07 00:11:45;;;;;;;2.80;2.50;;;22.10;88.10;;;;;;5076535;28;20039;-87
2022/06/07 00:14:11;;;;;;;3.95;2.30;;;22.20;88.50;;;;;;5074348;28;20025;-88
2022/06/07 00:16:37;;;;;;;3.63;2.78;;;22.20;88.50;;;;;;5074914;28;20028;-87
2022/06/07 00:19:03;;;;;;;2.88;2.03;;;22.10;88.70;;;;;;5074549;28;20027;-87
2022/06/07 00:21:29;;;;;;;2.45;2.10;;;22.10;88.60;;;;;;5074139;28;20028;-87
2022/06/07 00:23:55;;;;;;;2.13;1.75;;;22.10;89.50;;;;;;5073910;28;20095;-87
2022/06/07 00:26:21;;;;;;;4.45;2.08;;;22.00;89.90;;;;;;5073465;28;20085;-86
2022/06/07 00:28:47;;;;;;;2.50;2.13;;;22.00;90.00;;;;;;5074078;28;20036;-86
2022/06/07 00:31:13;;;;;;;2.22;1.85;;;22.00;90.10;;;;;;5074022;28;20039;-85
2022/06/07 00:33:39;;;;;;;2.75;2.20;;;22.00;90.20;;;;;;5073751;28;20102;-86
2022/06/07 00:36:05;;;;;;;2.97;2.22;;;21.90;90.30;;;;;;5074123;28;20024;-86
2022/06/07 00:38:32;;;;;;;1.98;1.75;;;21.90;90.50;;;;;;5072698;28;20522;-85
2022/06/07 00:40:58;;;;;;;2.75;1.70;;;21.90;90.60;;;;;;5073502;28;20032;-86
2022/06/07 00:43:24;;;;;;;2.80;2.22;;;21.90;90.60;;;;;;5072585;28;20028;-85
2022/06/07 00:45:50;;;;;;;2.92;2.22;;;21.80;90.60;;;;;;5072925;28;20056;-86
2022/06/07 00:48:16;;;;;;;5.53;2.17;;;21.80;91.00;;;;;;5072952;28;20028;-85
2022/06/07 00:50:53;;;;;;;2.58;2.08;;;21.80;90.80;;;;;;5073781;28;20039;-85
2022/06/07 00:53:31;;;;;;;3.28;2.47;;;21.80;91.00;;;;;;5072752;28;20036;-85
2022/06/07 00:55:58;;;;;;;2.53;2.20;;;21.70;91.10;;;;;;5071473;28;20048;-86
2022/06/07 00:58:26;;;;;;;2.35;1.90;;;21.70;91.40;;;;;;5072877;28;20028;-86
2022/06/07 01:00:53;;;;;;;2.97;2.20;;;21.70;91.60;;;;;;5073364;28;20024;-87
2022/06/07 01:03:20;;;;;;;3.38;2.38;;;21.60;91.70;;;;;;5072598;28;20519;-87
2022/06/07 01:05:47;;;;;;;2.45;1.83;;;21.60;92.20;;;;;;5073352;28;20021;-87
2022/06/07 01:10:57;;;;;;;3.00;2.00;;;21.60;92.50;;;;;;5052940;28;20044;-86
2022/06/07 01:13:27;;;;;;;3.10;2.35;;;21.50;92.50;;;;;;5052845;28;20025;-87
2022/06/07 01:15:59;;;;;;;2.67;2.08;;;21.50;92.70;;;;;;5053438;28;20056;-86
2022/06/07 01:18:24;;;;;;;2.63;2.28;;;21.50;92.80;;;;;;5052934;28;20025;-85
2022/06/07 01:21:09;;;;;;;2.55;1.88;;;21.40;93.00;;;;;;5053143;28;20021;-86
2022/06/07 01:23:34;;;;;;;1.90;1.70;;;21.40;93.10;;;;;;5052780;28;20025;-87
2022/06/07 01:26:00;;;;;;;2.47;2.10;;;21.40;93.10;;;;;;5052943;28;20060;-87
2022/06/07 01:28:26;;;;;;;2.50;2.30;;;21.40;93.00;;;;;;5052660;28;20029;-86
2022/06/07 01:30:56;;;;;;;3.13;2.40;;;21.40;93.10;;;;;;5052748;28;20033;-86
2022/06/07 01:33:22;;;;;;;5.07;2.27;;;21.40;93.10;;;;;;5052686;28;20087;-86
2022/06/07 01:35:49;;;;;;;6.38;2.20;;;21.40;93.10;;;;;;5053084;28;20033;-87
2022/06/07 01:38:14;;;;;;;2.83;2.53;;;21.40;93.20;;;;;;5052561;28;20051;-77
2022/06/07 01:43:24;;;;;;;4.65;2.25;;;21.30;93.50;;;;;;5051324;28;20436;-86
2022/06/07 01:45:50;;;;;;;2.67;2.00;;;21.30;93.70;;;;;;5052449;28;20048;-85
2022/06/07 01:48:16;;;;;;;2.83;1.92;;;21.20;93.70;;;;;;5051978;28;20029;-78
2022/06/07 01:50:41;;;;;;;2.33;2.00;;;21.20;93.80;;;;;;5052306;28;20374;-87
2022/06/07 01:53:07;;;;;;;2.38;2.05;;;21.20;94.00;;;;;;5053068;28;20476;-87
2022/06/07 01:55:32;;;;;;;2.33;2.13;;;21.10;94.00;;;;;;5053005;28;20032;-86
2022/06/07 01:57:58;;;;;;;1.92;1.73;;;21.10;94.20;;;;;;5054549;28;20032;-86
2022/06/07 02:00:24;;;;;;;2.55;2.20;;;21.00;94.40;;;;;;5053051;28;20029;-87
2022/06/07 02:02:49;;;;;;;2.03;1.83;;;21.00;94.50;;;;;;5054641;28;20109;-86
2022/06/07 02:05:15;;;;;;;2.05;1.85;;;21.00;94.90;;;;;;5054501;28;20083;-86
2022/06/07 02:07:41;;;;;;;3.08;2.28;;;20.90;94.90;;;;;;5055783;28;20025;-86
2022/06/07 02:10:07;;;;;;;2.60;1.90;;;20.90;95.10;;;;;;5053827;28;20120;-85
2022/06/07 02:12:33;;;;;;;3.63;2.25;;;20.90;95.20;;;;;;5053047;28;20032;-85
2022/06/07 02:15:00;;;;;;;2.33;1.92;;;20.80;95.30;;;;;;5052317;28;20135;-87
2022/06/07 02:17:26;;;;;;;2.65;2.30;;;20.80;95.50;;;;;;5052156;28;20025;-85
2022/06/07 02:19:52;;;;;;;2.33;2.00;;;20.80;95.70;;;;;;5052723;28;20081;-86
2022/06/07 02:22:18;;;;;;;1.80;1.70;;;20.80;95.80;;;;;;5055212;28;20059;-78
2022/06/07 02:24:43;;;;;;;3.25;1.85;;;20.70;96.00;;;;;;5064174;28;20032;-86
2022/06/07 02:27:14;;;;;;;3.25;2.20;;;20.70;96.00;;;;;;5058559;28;20037;-85
2022/06/07 02:29:44;;;;;;;2.47;2.13;;;20.70;95.90;;;;;;5052013;28;20033;-86
2022/06/07 02:32:17;;;;;;;2.42;1.83;;;20.70;95.70;;;;;;5052345;28;20419;-87
2022/06/07 02:34:47;;;;;;;1.70;1.60;;;20.70;95.70;;;;;;5051809;28;20061;-86
2022/06/07 02:37:14;;;;;;;4.25;1.50;;;20.70;95.70;;;;;;5052579;28;20096;-86
2022/06/07 02:39:40;;;;;;;1.77;1.63;;;20.60;95.70;;;;;;5051897;28;20033;-86
2022/06/07 02:42:08;;;;;;;2.08;1.80;;;20.60;95.80;;;;;;5051828;28;20025;-86
2022/06/07 02:44:34;;;;;;;2.10;1.73;;;20.60;95.90;;;;;;5051196;28;20091;-86
2022/06/07 02:47:00;;;;;;;1.70;1.50;;;20.60;95.90;;;;;;5052554;28;20090;-84
2022/06/07 02:49:25;;;;;;;2.83;1.55;;;20.60;96.00;;;;;;5051713;28;20029;-86
2022/06/07 02:51:51;;;;;;;1.40;1.30;;;20.50;96.00;;;;;;5051422;28;20130;-86
2022/06/07 02:54:17;;;;;;;1.70;1.58;;;20.50;96.00;;;;;;5051877;28;20025;-86
2022/06/07 02:56:42;;;;;;;1.75;1.65;;;20.50;96.10;;;;;;5053190;28;20029;-87
2022/06/07 02:59:08;;;;;;;2.00;1.67;;;20.50;96.20;;;;;;5058044;28;20477;-86
2022/06/07 03:01:33;;;;;;;2.22;1.50;;;20.50;96.10;;;;;;5054545;28;20052;-87
2022/06/07 03:03:59;;;;;;;1.45;1.35;;;20.50;96.20;;;;;;5055662;28;20100;-87
2022/06/07 03:06:25;;;;;;;1.70;1.33;;;20.50;96.20;;;;;;5054857;28;20028;-85
2022/06/07 03:08:51;;;;;;;1.73;1.63;;;20.50;96.20;;;;;;5055444;28;20467;-87
2022/06/07 03:11:16;;;;;;;2.38;1.67;;;20.50;96.20;;;;;;5055214;28;20064;-87
2022/06/07 03:13:42;;;;;;;3.42;1.80;;;20.50;96.00;;;;;;5062100;28;20028;-86
2022/06/07 03:16:08;;;;;;;2.58;1.95;;;20.50;96.40;;;;;;5058457;28;20465;-86
2022/06/07 03:18:34;;;;;;;2.05;1.70;;;20.50;96.30;;;;;;5055218;28;20033;-86
2022/06/07 03:20:59;;;;;;;1.70;1.58;;;20.50;96.60;;;;;;5066189;28;20044;-86
2022/06/07 03:23:25;;;;;;;2.13;1.70;;;20.50;96.50;;;;;;5075173;28;20419;-85
2022/06/07 03:25:51;;;;;;;1.85;1.63;;;20.50;96.50;;;;;;5075385;28;20489;-86
2022/06/07 03:28:17;;;;;;;1.63;1.52;;;20.50;96.30;;;;;;5075209;28;20032;-86
2022/06/07 03:30:42;;;;;;;2.38;1.73;;;20.50;96.50;;;;;;5074715;28;20427;-86
2022/06/07 03:33:09;;;;;;;2.45;1.73;;;20.50;96.50;;;;;;5075158;28;20465;-86
2022/06/07 03:35:35;;;;;;;2.60;1.98;;;20.50;96.30;;;;;;5074693;28;20050;-86
2022/06/07 03:38:01;;;;;;;3.17;1.50;;;20.60;96.50;;;;;;5075287;28;20021;-85
2022/06/07 03:40:44;;;;;;;2.40;1.80;;;20.60;96.50;;;;;;5074638;28;20021;-78
2022/06/07 03:43:11;;;;;;;2.55;2.03;;;20.60;96.40;;;;;;5074921;28;20376;-87
2022/06/07 03:45:37;;;;;;;4.70;2.38;;;20.70;96.70;;;;;;5074086;28;20059;-87
2022/06/07 03:48:03;;;;;;;3.42;2.50;;;20.60;97.10;;;;;;5075421;28;20024;-86
2022/06/07 03:50:28;;;;;;;4.18;2.65;;;20.70;97.40;;;;;;5074738;28;20112;-85
2022/06/07 03:52:54;;;;;;;3.28;2.60;;;20.70;97.50;;;;;;5075218;28;20127;-85
2022/06/07 03:55:20;;;;;;;4.70;2.65;;;20.70;97.70;;;;;;5074541;28;20024;-88
2022/06/07 03:57:46;;;;;;;3.67;2.60;;;20.80;97.70;;;;;;5074620;28;20033;-88
2022/06/07 04:00:12;;;;;;;3.20;2.72;;;20.80;97.80;;;;;;5074841;28;20150;-88
2022/06/07 04:02:37;;;;;;;2.88;2.17;;;20.80;98.10;;;;;;5074732;28;20103;-87
2022/06/07 04:05:04;;;;;;;2.65;2.20;;;20.90;97.90;;;;;;5070688;28;20130;-86
2022/06/07 04:10:14;;;;;;;3.65;2.70;;;20.90;98.10;;;;;;5067268;28;20035;-86
2022/06/07 04:12:39;;;;;;;3.53;2.25;;;20.90;97.50;;;;;;5060600;28;20453;-86
2022/06/07 04:15:05;;;;;;;5.07;2.45;;;21.00;97.80;;;;;;5055461;28;20462;-87
2022/06/07 04:17:31;;;;;;;3.75;2.35;;;21.00;97.70;;;;;;5067665;28;20025;-87
2022/06/07 04:19:57;;;;;;;2.40;2.20;;;21.10;97.70;;;;;;5086501;28;20092;-85
2022/06/07 04:22:23;;;;;;;2.30;2.00;;;21.20;97.20;;;;;;5094918;28;20421;-86
2022/06/07 04:24:48;;;;;;;2.95;1.98;;;21.30;96.80;;;;;;5081207;28;20032;-87
2022/06/07 04:27:14;;;;;;;4.68;2.13;;;21.40;96.80;;;;;;5072496;28;20560;-87
2022/06/07 04:29:41;;;;;;;2.92;2.40;;;21.50;96.70;;;;;;5054638;28;20443;-86
2022/06/07 04:32:07;;;;;;;3.25;2.35;;;21.70;95.80;;;;;;5054999;28;20076;-87
2022/06/07 04:34:32;;;;;;;2.38;1.90;;;21.90;95.40;;;;;;5054138;28;20048;-86
2022/06/07 04:36:58;;;;;;;3.83;2.10;;;22.00;95.00;;;;;;5054763;28;20441;-87
2022/06/07 04:39:24;;;;;;;3.70;2.25;;;22.20;94.20;;;;;;5054659;28;20048;-86
2022/06/07 04:41:49;;;;;;;3.38;2.20;;;22.30;93.50;;;;;;5055878;28;20830;-86
2022/06/07 04:44:15;;;;;;;2.47;2.05;;;22.50;92.90;;;;;;5056279;28;20036;-87
2022/06/07 04:46:41;;;;;;;2.55;2.00;;;22.70;92.10;;;;;;5066635;28;20024;-87
2022/06/07 04:49:07;;;;;;;2.80;2.40;;;22.80;91.70;;;;;;5074359;28;20051;-86
2022/06/07 04:51:36;;;;;;;3.00;2.00;;;23.00;91.10;;;;;;5072914;28;20060;-84
2022/06/07 04:54:03;;;;;;;2.85;2.25;;;23.20;90.70;;;;;;5070487;28;20099;-82
2022/06/07 04:56:34;;;;;;;3.13;2.20;;;23.40;89.60;;;;;;5073439;28;20036;-79
2022/06/07 04:59:01;;;;;;;3.17;2.40;;;23.60;89.10;;;;;;5074022;28;20027;-82
2022/06/07 05:01:29;;;;;;;3.92;2.15;;;23.80;86.70;;;;;;5073211;28;20047;-82
2022/06/07 05:03:55;;;;;;;3.28;2.35;;;24.00;85.60;;;;;;5072751;28;20044;-82
2022/06/07 05:06:26;;;;;;;2.95;2.03;;;24.20;84.00;;;;;;5073461;28;20028;-83
2022/06/07 05:08:55;;;;;;;3.85;2.60;;;24.40;83.10;;;;;;5071726;28;20372;-83
2022/06/07 05:11:20;;;;;;;2.85;2.47;;;24.70;80.90;;;;;;5073042;28;20035;-83
2022/06/07 05:13:46;;;;;;;3.30;2.30;;;24.90;79.60;;;;;;5067956;28;20020;-82
2022/06/07 05:16:12;;;;;;;3.20;2.50;;;25.00;78.70;;;;;;5053181;28;20397;-82
2022/06/07 05:18:38;;;;;;;2.50;2.30;;;25.20;76.80;;;;;;5052456;28;20063;-82
2022/06/07 05:21:08;;;;;;;2.40;2.17;;;25.30;76.30;;;;;;5052974;28;20136;-83
2022/06/07 05:23:34;;;;;;;2.45;2.25;;;25.50;76.10;;;;;;5053099;28;20025;-80
2022/06/07 05:26:04;;;;;;;2.97;2.53;;;25.60;75.00;;;;;;5052999;28;20036;-84
2022/06/07 05:28:30;;;;;;;3.03;2.05;;;25.80;73.70;;;;;;5054760;28;20056;-89
2022/06/07 05:30:56;;;;;;;6.90;3.63;;;26.10;73.10;;;;;;5054825;28;20116;-87
2022/06/07 05:33:21;;;;;;;4.68;2.70;;;26.30;71.60;;;;;;5054844;28;20017;-87
2022/06/07 05:35:47;;;;;;;3.70;2.70;;;26.50;71.00;;;;;;5054297;28;20090;-87
2022/06/07 05:38:14;;;;;;;3.40;2.58;;;26.70;70.50;;;;;;5055115;28;20021;-89
2022/06/07 05:40:40;;;;;;;4.30;2.70;;;27.00;70.20;;;;;;5054040;28;20101;-89
2022/06/07 05:43:05;;;;;;;5.00;2.65;;;27.20;68.60;;;;;;5053967;28;20064;-89
2022/06/07 05:45:31;;;;;;;2.60;2.40;;;27.60;67.40;;;;;;5054281;28;20098;-88
2022/06/07 05:47:57;;;;;;;2.47;2.28;;;27.80;65.50;;;;;;5053869;28;20051;-88
2022/06/07 05:50:25;;;;;;;2.67;2.47;;;28.10;65.00;;;;;;5053827;28;20086;-88
2022/06/07 05:52:51;;;;;;;2.35;2.15;;;28.50;64.90;;;;;;5053588;28;20081;-87
2022/06/07 05:55:16;;;;;;;3.03;2.45;;;28.80;62.60;;;;;;5055074;28;20112;-87
2022/06/07 05:57:44;;;;;;;2.50;2.10;;;29.20;60.40;;;;;;5055699;28;20100;-87
2022/06/07 06:00:11;;;;;;;3.33;2.30;;;29.50;59.30;;;;;;5065969;28;20083;-87
2022/06/07 06:02:36;;;;;;;3.13;2.80;;;29.80;58.40;;;;;;5063041;28;20025;-78
2022/06/07 06:05:03;;;;;;;4.13;2.55;;;30.20;57.20;;;;;;5055274;28;20403;-87
2022/06/07 06:07:29;;;;;;;2.65;2.35;;;30.30;56.80;;;;;;5055152;28;20067;-90
2022/06/07 06:12:39;;;;;;;2.42;2.00;;;30.60;56.50;;;;;;5054599;28;20047;-86
2022/06/07 06:15:05;;;;;;;1.88;1.77;;;30.80;55.10;;;;;;5054111;28;20017;-87
2022/06/07 06:17:30;;;;;;;2.35;2.15;;;30.60;54.00;;;;;;5054381;28;20101;-88
2022/06/07 06:19:56;;;;;;;3.20;2.10;;;30.50;53.80;;;;;;5053460;28;20389;-88
2022/06/07 06:22:22;;;;;;;2.35;2.15;;;30.30;55.00;;;;;;5053343;28;20040;-88
2022/06/07 06:24:47;;;;;;;3.20;2.63;;;30.00;55.30;;;;;;5053402;28;20029;-87
2022/06/07 06:27:13;;;;;;;2.17;1.92;;;29.70;56.30;;;;;;5054862;28;20021;-86
2022/06/07 06:29:39;;;;;;;2.58;2.35;;;29.50;56.30;;;;;;5053843;28;20106;-82
2022/06/07 06:32:05;;;;;;;2.63;2.42;;;29.30;56.90;;;;;;5057970;28;20116;-87
2022/06/07 06:34:30;;;;;;;3.40;2.40;;;29.20;57.50;;;;;;5058019;28;20100;-87
2022/06/07 06:36:57;;;;;;;3.03;2.38;;;29.00;57.90;;;;;;5057327;28;20033;-87
2022/06/07 06:39:24;;;;;;;2.28;1.90;;;28.90;58.00;;;;;;5059203;28;20472;-87
2022/06/07 06:41:50;;;;;;;2.15;1.92;;;28.80;58.00;;;;;;5065569;28;20017;-87
2022/06/07 06:44:16;;;;;;;2.75;2.30;;;28.70;58.30;;;;;;5064620;28;21379;-86
2022/06/07 06:46:45;;;;;;;3.55;1.95;;;28.70;58.50;;;;;;5059250;28;20029;-87
2022/06/07 06:49:12;;;;;;;2.92;2.03;;;28.80;58.90;;;;;;5057214;28;20041;-87
2022/06/07 06:51:38;;;;;;;2.45;2.25;;;28.80;58.70;;;;;;5056991;28;20462;-86
2022/06/07 06:54:05;;;;;;;2.97;2.08;;;28.90;58.00;;;;;;5057809;28;20036;-86
2022/06/07 06:56:31;;;;;;;2.42;2.10;;;28.90;58.50;;;;;;5058121;28;20021;-86
2022/06/07 06:58:58;;;;;;;2.42;2.20;;;28.90;58.40;;;;;;5055562;28;20033;-87
2022/06/07 07:01:35;;;;;;;2.28;2.03;;;28.90;57.80;;;;;;5057826;28;20330;-87
2022/06/07 07:04:05;;;;;;;2.63;2.25;;;29.00;57.20;;;;;;5056304;28;20029;-86
2022/06/07 07:06:31;;;;;;;2.17;1.70;;;28.90;57.50;;;;;;5056979;28;20121;-86
2022/06/07 07:08:57;;;;;;;4.18;2.13;;;28.90;57.70;;;;;;5066100;28;20035;-85
2022/06/07 07:11:30;;;;;;;2.40;2.17;;;28.80;58.10;;;;;;5075442;28;20055;-87
2022/06/07 07:13:56;;;;;;;2.95;2.35;;;28.70;58.10;;;;;;5075548;28;20469;-87
2022/06/07 07:16:25;;;;;;;2.42;2.00;;;28.70;58.80;;;;;;5078039;28;20112;-88
2022/06/07 07:18:51;;;;;;;3.10;2.42;;;28.70;58.70;;;;;;5078643;28;20036;-88
2022/06/07 07:21:30;;;;;;;2.80;2.17;;;28.70;58.00;;;;;;5075683;28;20029;-87
2022/06/07 07:23:58;;;;;;;2.33;2.13;;;28.80;58.00;;;;;;5076517;28;20024;-87
2022/06/07 07:26:26;;;;;;;2.33;2.10;;;29.00;57.40;;;;;;5075925;28;20017;-87
2022/06/07 07:28:53;;;;;;;3.70;2.30;;;29.20;57.20;;;;;;5075156;28;20032;-86
2022/06/07 07:31:23;;;;;;;2.65;1.98;;;29.50;57.50;;;;;;5075801;28;20413;-87
2022/06/07 07:33:49;;;;;;;2.60;2.22;;;29.90;57.20;;;;;;5075626;28;20078;-87
2022/06/07 07:36:15;;;;;;;2.67;1.77;;;30.20;55.20;;;;;;5075859;28;20095;-87
2022/06/07 07:38:41;;;;;;;2.72;1.92;;;30.40;55.30;;;;;;5075816;28;20453;-87
2022/06/07 07:41:18;;;;;;;2.13;1.85;;;30.40;54.20;;;;;;5076727;28;20024;-88
2022/06/07 07:43:46;;;;;;;2.33;1.90;;;30.40;54.80;;;;;;5076478;28;20086;-84
2022/06/07 07:46:12;;;;;;;2.53;2.20;;;30.40;54.70;;;;;;5076547;28;20067;-87
2022/06/07 07:48:38;;;;;;;2.40;1.90;;;30.20;54.10;;;;;;5075256;28;20091;-86
2022/06/07 07:51:06;;;;;;;2.17;1.77;;;30.00;55.00;;;;;;5075090;28;20143;-87
2022/06/07 07:53:32;;;;;;;2.45;1.85;;;29.90;55.70;;;;;;5075548;28;20028;-87
2022/06/07 07:55:58;;;;;;;2.45;1.88;;;29.90;56.10;;;;;;5075468;28;20342;-87
2022/06/07 07:58:24;;;;;;;3.10;2.30;;;29.70;55.50;;;;;;5075493;28;20028;-87
2022/06/07 08:00:50;;;;;;;3.67;2.10;;;29.60;54.90;;;;;;5074355;28;20021;-86
2022/06/07 08:03:18;;;;;;;2.75;1.90;;;29.40;56.10;;;;;;5074848;28;20465;-86
2022/06/07 08:05:44;;;;;;;2.55;1.95;;;29.30;56.30;;;;;;5075313;28;20017;-86
2022/06/07 08:08:11;;;;;;;3.65;2.20;;;29.20;56.10;;;;;;5074890;28;20028;-86
2022/06/07 08:10:38;;;;;;;1.42;1.30;;;29.10;56.90;;;;;;5073660;28;20116;-87
2022/06/07 08:13:05;;;;;;;1.98;1.52;;;29.00;55.40;;;;;;5074735;28;20090;-87
2022/06/07 08:15:33;;;;;;;1.38;1.20;;;28.90;54.30;;;;;;5075152;28;20029;-87
2022/06/07 08:18:02;;;;;;;1.30;1.20;;;28.80;54.20;;;;;;5074598;28;20068;-87
2022/06/07 08:20:29;;;;;;;1.77;1.27;;;28.60;54.60;;;;;;5074839;28;20025;-88
2022/06/07 08:22:55;;;;;;;1.17;1.08;;;28.60;55.10;;;;;;5074116;28;20029;-87
2022/06/07 08:25:20;;;;;;;1.15;1.02;;;28.50;53.90;;;;;;5074143;28;20066;-86
2022/06/07 08:27:46;;;;;;;1.10;1.00;;;28.30;53.70;;;;;;5074783;28;20384;-87
2022/06/07 08:30:13;;;;;;;2.38;1.27;;;28.20;54.10;;;;;;5074515;28;20024;-87
2022/06/07 08:32:40;;;;;;;1.35;1.02;;;28.00;54.60;;;;;;5074857;28;20041;-87
2022/06/07 08:37:51;;;;;;;1.30;1.20;;;27.70;55.40;;;;;;5076525;28;20488;-86
2022/06/07 08:40:36;;;;;;;1.20;1.10;;;27.50;56.10;;;;;;5074343;28;20029;-86
2022/06/07 08:43:11;;;;;;;1.75;1.30;;;27.40;56.50;;;;;;5073996;28;20485;-87
2022/06/07 08:45:40;;;;;;;1.10;1.00;;;27.30;57.90;;;;;;5074685;28;20064;-88
2022/06/07 08:48:13;;;;;;;1.95;0.90;;;27.20;57.40;;;;;;5073914;28;20039;-87
2022/06/07 08:50:45;;;;;;;1.05;0.88;;;27.00;57.40;;;;;;5071207;28;20086;-86
2022/06/07 08:53:34;;;;;;;1.05;0.95;;;26.90;57.40;;;;;;5074410;28;20480;-88
2022/06/07 08:56:03;;;;;;;1.27;1.08;;;26.80;57.20;;;;;;5073281;28;20028;-87
2022/06/07 08:58:38;;;;;;;1.15;1.05;;;26.70;57.50;;;;;;5074207;28;20036;-86
2022/06/07 09:01:42;;;;;;;1.20;1.10;;;26.50;58.30;;;;;;5074004;28;20056;-87
2022/06/07 09:04:17;;;;;;;1.52;1.02;;;26.40;57.50;;;;;;5073732;28;20028;-87
2022/06/07 09:06:46;;;;;;;1.00;1.00;;;26.40;58.40;;;;;;5070556;28;20028;-87
2022/06/07 09:09:14;;;;;;;1.10;0.93;;;26.30;58.10;;;;;;5053203;28;20086;-87
2022/06/07 09:14:31;;;;;;;1.08;0.95;;;26.20;58.60;;;;;;5053908;28;20044;-87
2022/06/07 09:16:58;;;;;;;1.20;1.10;;;26.10;58.50;;;;;;5053482;28;20112;-87
2022/06/07 09:19:27;;;;;;;1.45;1.10;;;26.20;57.80;;;;;;5053825;28;20043;-88
2022/06/07 09:21:56;;;;;;;0.80;0.80;;;26.20;58.00;;;;;;5053989;28;20063;-82
2022/06/07 09:24:28;;;;;;;1.42;0.98;;;26.20;57.50;;;;;;5053753;28;20031;-87
2022/06/07 09:27:11;;;;;;;1.33;1.20;;;26.20;57.50;;;;;;5053592;28;20037;-86
2022/06/07 09:29:39;;;;;;;1.45;1.27;;;26.30;58.50;;;;;;5054587;28;20021;-87
2022/06/07 09:32:18;;;;;;;1.25;1.15;;;26.30;59.20;;;;;;5054694;28;20033;-87
2022/06/07 09:35:00;;;;;;;1.30;1.20;;;26.40;59.10;;;;;;5060379;28;20139;-86
2022/06/07 09:37:37;;;;;;;1.05;0.88;;;26.30;59.00;;;;;;5064674;28;20035;-86
2022/06/07 09:40:29;;;;;;;1.58;1.25;;;26.30;57.50;;;;;;5054271;28;20110;-87
2022/06/07 09:43:13;;;;;;;1.25;1.00;;;26.20;57.50;;;;;;5055033;28;20071;-87
2022/06/07 09:45:52;;;;;;;1.20;1.10;;;26.20;57.50;;;;;;5053588;28;20060;-87
2022/06/07 09:48:30;;;;;;;1.00;0.95;;;26.30;57.90;;;;;;5053267;28;20406;-87
2022/06/07 09:51:07;;;;;;;1.52;1.08;;;26.40;57.70;;;;;;5053209;28;20103;-86
2022/06/07 09:53:38;;;;;;;1.40;1.20;;;26.50;57.40;;;;;;5053629;28;20029;-87
2022/06/07 09:56:24;;;;;;;1.77;1.10;;;26.50;58.20;;;;;;5052949;28;20053;-87
2022/06/07 09:59:16;;;;;;;1.33;1.20;;;26.50;57.90;;;;;;5053220;28;20029;-87
2022/06/07 10:01:55;;;;;;;1.42;1.20;;;26.50;58.10;;;;;;5052608;28;20358;-87
2022/06/07 10:04:36;;;;;;;1.42;1.30;;;26.60;58.90;;;;;;5052739;28;20021;-88
2022/06/07 10:07:11;;;;;;;1.73;1.40;;;26.60;60.80;;;;;;5052812;28;20075;-87
2022/06/07 10:09:57;;;;;;;1.42;1.30;;;26.60;61.30;;;;;;5053071;28;20025;-86
2022/06/07 10:12:32;;;;;;;1.77;1.20;;;26.70;60.90;;;;;;5053171;28;20124;-87
2022/06/07 10:15:06;;;;;;;5.00;1.63;;;26.80;61.60;;;;;;5052864;28;20029;-87
2022/06/07 10:17:50;;;;;;;1.20;1.10;;;26.80;60.50;;;;;;5053046;28;20056;-86
2022/06/07 10:20:28;;;;;;;1.35;1.25;;;26.90;59.40;;;;;;5053095;28;20025;-86
2022/06/07 10:23:15;;;;;;;1.95;1.38;;;26.90;58.70;;;;;;5052552;28;20436;-87
2022/06/07 10:26:02;;;;;;;1.27;1.17;;;26.90;59.10;;;;;;5053142;28;20052;-88
2022/06/07 10:28:57;;;;;;;2.13;1.48;;;26.90;60.50;;;;;;5052878;28;20465;-87
2022/06/07 10:31:39;;;;;;;1.77;1.42;;;27.00;60.80;;;;;;5052785;28;20095;-87
2022/06/07 10:34:09;;;;;;;1.58;1.48;;;27.10;60.40;;;;;;5052141;28;20127;-88
2022/06/07 10:36:56;;;;;;;1.80;1.50;;;27.20;60.80;;;;;;5052662;28;20040;-88
2022/06/07 10:39:24;;;;;;;1.90;1.70;;;27.30;60.40;;;;;;5053119;28;20048;-86
2022/06/07 10:42:06;;;;;;;2.10;1.90;;;27.30;60.70;;;;;;5053524;28;20029;-87
2022/06/07 10:44:44;;;;;;;2.00;1.80;;;27.20;61.10;;;;;;5055003;28;20048;-86
2022/06/07 10:47:33;;;;;;;2.08;1.80;;;27.10;61.70;;;;;;5051804;28;20032;-86
2022/06/07 10:50:13;;;;;;;2.17;1.90;;;27.10;62.50;;;;;;5041041;28;20037;-87
2022/06/07 10:52:45;;;;;;;;;;;27.00;61.50;;;;;;5052605;28;20091;-86
2022/06/07 10:55:33;;;;;;;1.92;1.73;;;26.90;61.20;;;;;;5052039;28;20004;-86
2022/06/07 10:58:31;;;;;;;1.85;1.50;;;26.80;61.50;;;;;;5052122;28;20047;-87
2022/06/07 11:01:49;;;;;;;3.30;1.70;;;26.80;62.00;;;;;;5052710;28;20021;-79
2022/06/07 11:10:39;;;;;;;1.95;1.70;;;26.70;60.60;;;;;;5052097;28;20079;-86
2022/06/07 11:13:07;;;;;;;2.08;1.80;;;26.60;60.90;;;;;;5051706;28;20045;-88
2022/06/07 11:15:45;;;;;;;1.92;1.50;;;26.50;60.70;;;;;;5053505;28;20025;-86
2022/06/07 11:18:25;;;;;;;1.67;1.58;;;26.50;61.80;;;;;;5072375;28;20029;-86
2022/06/07 11:21:12;;;;;;;1.90;1.80;;;26.50;61.60;;;;;;5075563;28;20443;-87
2022/06/07 11:23:43;;;;;;;1.75;1.48;;;26.40;61.60;;;;;;5075721;28;20416;-87
2022/06/07 11:26:15;;;;;;;2.55;1.80;;;26.40;62.50;;;;;;5075430;28;20033;-87
2022/06/07 11:28:40;;;;;;;2.67;1.67;;;26.30;62.50;;;;;;5075271;28;20025;-87
2022/06/07 11:31:15;;;;;;;1.73;1.63;;;26.20;61.70;;;;;;5076244;28;20513;-86
2022/06/07 11:33:47;;;;;;;1.52;1.42;;;26.20;62.20;;;;;;5075304;28;20470;-87
2022/06/07 11:36:12;;;;;;;2.05;1.67;;;26.10;61.30;;;;;;5074995;28;20035;-87
2022/06/07 11:38:59;;;;;;;1.90;1.67;;;26.10;62.20;;;;;;5075401;28;20483;-87
2022/06/07 11:41:41;;;;;;;2.22;1.70;;;25.90;61.80;;;;;;5075408;28;20024;-87
2022/06/07 11:44:12;;;;;;;2.15;1.42;;;25.80;61.90;;;;;;5074613;28;20033;-86
2022/06/07 11:47:03;;;;;;;1.85;1.30;;;25.70;62.00;;;;;;5075659;28;20031;-87
2022/06/07 11:49:28;;;;;;;1.67;1.50;;;25.60;62.50;;;;;;5075496;28;20028;-86
2022/06/07 11:52:13;;;;;;;5.35;1.95;;;25.50;63.70;;;;;;5075166;28;20488;-85
2022/06/07 11:54:53;;;;;;;2.38;1.67;;;25.30;64.40;;;;;;5076362;28;20036;-85
2022/06/07 11:57:28;;;;;;;2.70;2.00;;;25.20;65.90;;;;;;5074927;28;20044;-86
2022/06/07 12:00:18;;;;;;;6.45;2.67;;;25.10;67.60;;;;;;5075158;28;20029;-86
2022/06/07 12:02:56;;;;;;;2.50;1.80;;;25.00;68.00;;;;;;5074953;28;20032;-87
2022/06/07 12:05:31;;;;;;;1.83;1.58;;;24.90;70.20;;;;;;5074339;28;20029;-87
2022/06/07 12:08:06;;;;;;;2.00;1.80;;;24.70;71.20;;;;;;5074273;28;20025;-86
2022/06/07 12:10:35;;;;;;;1.90;1.58;;;24.60;73.20;;;;;;5074999;28;20357;-87
2022/06/07 12:13:07;;;;;;;1.70;1.40;;;24.50;75.80;;;;;;5074881;28;20119;-77
2022/06/07 12:15:42;;;;;;;2.28;1.80;;;24.40;76.90;;;;;;5074768;28;20528;-85
2022/06/07 12:18:21;;;;;;;2.17;1.80;;;24.30;79.50;;;;;;5074137;28;20035;-85
2022/06/07 12:21:09;;;;;;;2.88;1.70;;;24.20;79.70;;;;;;5074568;28;20153;-86
2022/06/07 12:23:41;;;;;;;1.88;1.30;;;24.00;81.30;;;;;;5074451;28;20036;-87
2022/06/07 12:26:29;;;;;;;2.28;1.60;;;23.80;82.80;;;;;;5074958;28;20036;-86
2022/06/07 12:29:17;;;;;;;1.77;1.55;;;23.50;84.80;;;;;;5074514;28;20028;-82
2022/06/07 12:32:01;;;;;;;1.88;1.60;;;23.30;87.10;;;;;;5075358;28;20043;-86
2022/06/07 12:34:33;;;;;;;1.75;1.60;;;23.00;90.10;;;;;;5075210;28;20029;-86
2022/06/07 12:37:14;;;;;;;1.88;1.77;;;22.80;91.30;;;;;;5075256;28;20080;-86
2022/06/07 12:39:51;;;;;;;2.60;2.35;;;22.70;91.90;;;;;;5074352;28;20568;-85
2022/06/07 12:42:18;;;;;;;2.42;1.98;;;22.50;93.30;;;;;;5074348;28;20025;-86
2022/06/07 12:45:12;;;;;;;2.40;1.85;;;22.40;94.10;;;;;;5089453;28;20139;-86
2022/06/07 12:47:39;;;;;;;5.13;2.10;;;22.30;94.80;;;;;;5083404;28;20048;-87
2022/06/07 12:50:22;;;;;;;2.17;1.75;;;22.20;96.10;;;;;;5073759;28;20121;-80
2022/06/07 12:52:52;;;;;;;28.55;2.72;;;22.10;97.20;;;;;;5063718;28;20047;-87
2022/06/07 12:55:24;;;;;;;2.50;2.20;;;22.00;98.10;;;;;;5059569;28;20412;-85
2022/06/07 12:57:54;;;;;;;2.38;2.00;;;22.00;98.80;;;;;;5057141;28;20025;-87
2022/06/07 13:00:24;;;;;;;3.47;2.47;;;22.00;99.90;;;;;;5056172;28;20025;-86
2022/06/07 13:03:17;;;;;;;4.57;2.37;;;21.90;99.90;;;;;;5055892;28;20040;-87
2022/06/07 13:05:42;;;;;;;2.30;2.10;;;21.90;99.90;;;;;;5055499;28;20458;-86
2022/06/07 13:08:16;;;;;;;2.30;1.90;;;21.90;99.90;;;;;;5055979;28;20128;-86
2022/06/07 13:10:44;;;;;;;3.15;2.40;;;21.90;99.90;;;;;;5060770;28;20033;-86
2022/06/07 13:13:31;;;;;;;2.40;1.98;;;21.90;99.90;;;;;;5062007;28;20116;-86
2022/06/07 13:16:01;;;;;;;2.42;1.90;;;21.80;99.90;;;;;;5057049;28;20389;-86
2022/06/07 13:18:32;;;;;;;2.65;2.13;;;21.80;99.90;;;;;;5055327;28;20024;-86
2022/06/07 13:21:20;;;;;;;4.40;2.55;;;21.80;99.90;;;;;;5054260;28;20028;-86
2022/06/07 13:23:52;;;;;;;3.47;2.20;;;21.70;99.90;;;;;;5053702;28;20110;-86
2022/06/07 13:26:29;;;;;;;2.97;2.15;;;21.60;99.90;;;;;;5053015;28;20059;-85
2022/06/07 13:29:10;;;;;;;2.92;2.47;;;21.60;99.90;;;;;;5053435;28;20021;-86